Aérodrome :
LOGIN :

S'inscrire | Disclaimer

   EN    FR    IT 

 










Légende :    VFR   VFR Marginal   IFR   IFR Intensif   IFR Très Intensif
Visi : 
Plafond : 
>= 8 km
>= 3000ft
5 à 8 km
1000 à 3000 ft
1500m à 5 km
500 à 1000 ft
800 à 1500m
200 à 500 ft
< 800m
< 200 ft
Symboles :   Orages  Brouillard  Fortes neiges  Fortes précipitations  Vent > 20 kt
SIGMETs :   Divers  Orages  Givrage  Turbulence  Onde Orograph.  Cendres Volcan.







- Altitude de l'aérodrome : 177 ft
- Code IATA : BRI


LIBD - Palese Macchie Bari

DERNIER METAR :
  • 222020Z 15005KT 110V200 9999 FEW045 12/08 Q1004

METARs EXPIRÉS :
  • 221950Z 17006KT 120V200 9999 FEW045 12/08 Q1004
  • 221920Z 13007KT 9999 SCT045 12/08 Q1004
  • 221850Z 13007KT 100V160 9999 SCT045 12/08 Q1004
  • 221820Z 14007KT 9999 SCT045 12/08 Q1004
  • 221750Z 14007KT 110V170 9999 SCT045 12/07 Q1004

TAF TAF LIBD
Valide du 22 à 18h jusqu'au 23 à 18h UTC


221700Z 2218/2318 16015KT 9999 SCT020
TEMPO 2221/2312 RA
Pas de NOTAMs connus pour ce terrain.
1 SIGMET publié pour la FIR Brindisi (LIBB) :
 
Orages noyés dans la masse
LIBB SIGMET 1 VALID 221913/222200 LIIB
LIBB BRINDISI FIR EMBD TS FCST WI N3854 E01817 - N4022 E01819 - N4033 E01531 - N3908 E01617 - N3855 E01637 - N3854 E01817 TOP ABV FL200 MOV N NC=



MET'MAP, la Météo Aéronautique d'un coup d'oeil ! - Copyright ORBIFLY Décembre 2007 - Disclaimer

ORBIFLY MET'MAP TEAM :

Programmation & Développement : Alexandra Zaïnal
Conception & Développement : Baudouin d'Aumeries
Co-Programmation & Développement : Marc-Olivier Méhu
Soutien technique & logistique : Manuel Goepfert

Contact : metmap@orbifly.com




SOURCES & CREDITS :

   NOAA